LFLL/LYS METAR and TAF weather

Enter ICAO airport designator
Station Type Date Time Source
LFLL METAR 2020/09/25 08:00 UTC NOAA

LFLL 250800Z 21003KT 160V260 CAVOK 12/07 Q1006 NOSIG


Station Type Date Time Source
LFLL Decoded METAR 2020/09/25 08:00 UTC NOAA

Lyon / Satolas, France (LFLL) 45-44N 005-05E 240M
Sep 25, 2020 - 04:00 AM EDT / 2020.09.25 0800 UTC
Wind: from the SSW (210 degrees) at 3 MPH (3 KT) (direction variable):0
Visibility: greater than 7 mile(s):0
Temperature: 53 F (12 C)
Dew Point: 44 F (7 C)
Relative Humidity: 71%
Pressure (altimeter): 29.71 in. Hg (1006 hPa)
ob: LFLL 250800Z 21003KT 160V260 CAVOK 12/07 Q1006 NOSIG
cycle: 8

Station Type Date Time Source
LFLL TAF 2020/09/25 06:46 UTC NOAA

TAF LFLL 250500Z 2506/2612 16006KT CAVOK
BECMG 2509/2511 28013KT FEW040CB SCT050TCU
TEMPO 2511/2522 30018G30KT 3500 SHRA SCT030CB BKN040TCU PROB30
TEMPO 2513/2518 30025G40KT 1400 TSRAGS
FM252200 31010KT 9999 BKN045 PROB40
TEMPO 2522/2602 SHRA FEW030CB SCT040TCU BKN045
TEMPO 2609/2612 31015G25KT 3000 SHRA SCT030CB BKN040TCU

Example: see airport list